Flight Track Log - Related Links

Times and Time Zones

All times are in EDT time to prevent confusion due to time zone crossing. See the N430WC flight status page for this flight to view local times or setup timezone preferences in your user account.


Time Position Orientation Groundspeed Altitude Reporting Facility
EDT Latitude Longitude Course Direction KTS MPH feet Rate Location/Type
Tue 09:10:03 AM 38.9500 -77.5167 336° Northwest 210 242 1,900  Level Potomac TRACON
Tue 09:11:48 AM 39.0575 -77.5778 336° Northwest 257 296 6,300 2,838 Climbing Washington Center
Tue 09:12:50 AM 39.1322 -77.5931 351° North 262 302 9,800 3,372 Climbing Washington Center
Tue 09:13:49 AM 39.2197 -77.6089 352° North 289 333 13,100 3,000 Climbing Washington Center
Tue 09:14:50 AM 39.3217 -77.6064 North 313 360 15,800 1,966 Climbing Washington Center
Tue 09:15:48 AM 39.4197 -77.6036 North 334 384 17,000 655 Climbing Washington Center
Tue 09:16:49 AM 39.4914 -77.6783 321° Northwest 328 377 17,100 1,082 Climbing Washington Center
Tue 09:17:50 AM 39.5206 -77.8028 287° West 316 364 19,200 2,421 Climbing Washington Center
Tue 09:19:40 AM 39.5967 -78.0531 292° West 388 447 24,000 2,547 Climbing Cleveland Center
Tue 09:20:42 AM 39.6386 -78.1953 291° West 414 476 26,500 2,323 Climbing Cleveland Center
Tue 09:21:44 AM 39.6803 -78.3386 291° West 422 486 28,800 2,226 Climbing Cleveland Center
Tue 09:22:46 AM 39.7231 -78.4847 291° West 431 496 31,100 2,177 Climbing Cleveland Center
Tue 09:23:48 AM 39.7658 -78.6286 291° West 430 495 33,300 2,081 Climbing Cleveland Center
Tue 09:24:50 AM 39.8092 -78.7847 290° West 423 487 35,400 1,742 Climbing Cleveland Center
Tue 09:25:52 AM 39.8508 -78.9272 291° West 422 486 36,900 1,694 Climbing Cleveland Center
Tue 09:26:54 AM 39.8903 -79.0642 291° West 411 473 38,900 1,500 Climbing Cleveland Center
Tue 09:27:56 AM 39.9364 -79.2247 291° West 396 456 40,000 823 Climbing Cleveland Center
Tue 09:28:58 AM 39.9742 -79.3553 291° West 389 448 40,600 1,024 Climbing Cleveland Center
Tue 09:29:59 AM 40.0297 -79.4656 303° West 370 426 42,100 1,171 Climbing Cleveland Center
Tue 09:31:01 AM 40.0831 -79.5708 304° West 349 402 43,000 435 Climbing Cleveland Center
Tue 09:32:03 AM 40.1383 -79.6789 304° West 356 410 43,000  Level Cleveland Center
Tue 09:33:05 AM 40.1961 -79.7894 304° West 366 421 43,000  Level Cleveland Center
Tue 09:34:07 AM 40.2631 -79.9219 304° West 365 420 43,000  Level Cleveland Center
Tue 09:35:09 AM 40.3175 -80.0311 303° West 361 415 43,000  Level Cleveland Center
Tue 09:36:11 AM 40.3747 -80.1422 304° West 366 421 43,000  Level Cleveland Center
Tue 09:37:12 AM 40.4292 -80.2506 303° West 361 415 43,000  Level Cleveland Center
Tue 09:38:14 AM 40.4819 -80.3586 303° West 359 413 43,000  Level Cleveland Center
Tue 09:39:16 AM 40.5481 -80.4900 304° West 365 420 43,000  Level Cleveland Center
Tue 09:40:18 AM 40.6044 -80.5994 304° West 361 415 43,000  Level Cleveland Center
Tue 09:41:20 AM 40.6575 -80.7094 302° West 355 409 43,000  Level Cleveland Center
Tue 09:42:22 AM 40.7117 -80.8211 303° West 358 412 43,000  Level Cleveland Center
Tue 09:43:23 AM 40.7664 -80.9308 303° West 355 409 43,000  Level Cleveland Center
Tue 09:44:25 AM 40.8211 -81.0419 303° West 356 410 43,000  Level Cleveland Center
Tue 09:45:27 AM 40.8753 -81.1531 303° West 356 410 43,000  Level Cleveland Center
Tue 09:46:29 AM 40.9294 -81.2633 303° West 355 409 43,000  Level Cleveland Center
Tue 09:47:30 AM 40.9775 -81.3803 299° West 357 411 43,000 244 Level Cleveland Center
Tue 09:48:32 AM 41.0261 -81.5208 295° West 356 410 43,500 532 Climbing Cleveland Center
Tue 09:49:34 AM 41.0672 -81.6406 295° West 352 405 44,100 484 Climbing Cleveland Center
Tue 09:50:36 AM 41.1094 -81.7622 295° West 355 409 44,500 341 Climbing Cleveland Center
Tue 09:51:37 AM 41.1525 -81.8867 295° West 362 417 44,800 244 Climbing Cleveland Center
Tue 09:52:39 AM 41.1961 -82.0119 295° West 367 422 45,000 97 Climbing Cleveland Center
Tue 09:53:41 AM 41.2403 -82.1397 295° West 374 430 45,000  Level Cleveland Center
Tue 09:54:42 AM 41.2853 -82.2731 294° West 385 443 45,000  Level Cleveland Center
Tue 09:55:44 AM 41.3311 -82.4067 295° West 392 451 45,000  Level Cleveland Center
Tue 09:56:46 AM 41.3772 -82.5406 295° West 395 455 45,000  Level Cleveland Center
Tue 09:57:48 AM 41.4233 -82.6775 294° West 399 459 45,000  Level Cleveland Center
Tue 09:58:50 AM 41.4689 -82.8131 294° West 398 458 45,000  Level Cleveland Center
Tue 09:59:51 AM 41.5139 -82.9489 294° West 398 458 45,000  Level Cleveland Center
Tue 10:00:53 AM 41.5672 -83.1089 294° West 402 463 45,000  Level Cleveland Center
Tue 10:01:55 AM 41.6050 -83.2272 293° West 401 461 45,000  Level Cleveland Center
Tue 10:02:57 AM 41.6494 -83.3644 293° West 403 464 45,000  Level Cleveland Center
Tue 10:03:59 AM 41.7033 -83.5300 294° West 405 466 45,000  Level Cleveland Center
Tue 10:05:01 AM 41.7483 -83.6700 293° West 407 468 45,000  Level Cleveland Center
Tue 10:06:03 AM 41.7925 -83.8092 293° West 406 467 45,000  Level Cleveland Center
Tue 10:07:04 AM 41.8386 -83.9503 294° West 411 473 45,000  Level Cleveland Center
Tue 10:08:06 AM 41.8842 -84.0894 294° West 407 468 45,000  Level Cleveland Center
Tue 10:09:08 AM 41.9283 -84.2286 293° West 406 467 45,000  Level Cleveland Center
Tue 10:10:10 AM 41.9781 -84.3822 294° West 408 470 45,000  Level Cleveland Center
Tue 10:11:12 AM 42.0217 -84.5214 293° West 406 467 45,000  Level Cleveland Center
Tue 10:12:14 AM 42.0661 -84.6619 293° West 411 473 45,000  Level Cleveland Center
Tue 10:13:16 AM 42.1097 -84.8017 293° West 409 471 45,000  Level Cleveland Center
Tue 10:14:18 AM 42.1611 -84.9692 293° West 408 470 45,000  Level Cleveland Center
Tue 10:15:20 AM 42.2042 -85.1075 293° West 404 465 45,000  Level Cleveland Center
Tue 10:16:19 AM 42.2394 -85.2292 291° West 404 465 45,000  Level Chicago Center
Tue 10:17:21 AM 42.2908 -85.3983 292° West 407 468 45,000 -97 Level Chicago Center
Tue 10:18:23 AM 42.3339 -85.5408 292° West 411 473 44,800 -774 Descending Chicago Center
Tue 10:19:25 AM 42.3747 -85.6794 292° West 403 464 43,400 -1,403 Descending Chicago Center
Tue 10:20:27 AM 42.4158 -85.8139 293° West 390 449 41,900 -1,355 Descending Chicago Center
Tue 10:21:29 AM 42.4550 -85.9439 292° West 377 434 40,600 -1,306 Descending Chicago Center
Tue 10:22:31 AM 42.4936 -86.0797 291° West 385 443 39,200 -1,306 Descending Chicago Center
Tue 10:23:33 AM 42.5336 -86.2139 292° West 381 438 37,900 -1,452 Descending Chicago Center
Tue 10:24:35 AM 42.5817 -86.3811 291° West 393 452 36,200 -1,500 Descending Chicago Center
Tue 10:25:37 AM 42.6225 -86.5217 292° West 397 457 34,800 -1,403 Descending Chicago Center
Tue 10:26:39 AM 42.6642 -86.6653 292° West 403 464 33,300 -1,355 Descending Chicago Center
Tue 10:27:41 AM 42.7047 -86.8089 291° West 405 466 32,000 -629 Descending Chicago Center
Tue 10:28:43 AM 42.7472 -86.9575 291° West 417 480 32,000  Level Chicago Center
Tue 10:29:45 AM 42.7914 -87.1075 292° West 424 488 32,000 -581 Level Chicago Center
Tue 10:30:47 AM 42.8344 -87.2592 291° West 428 493 30,800 -1,645 Descending Chicago Center
Tue 10:31:49 AM 42.8825 -87.4303 291° West 425 489 28,600 -2,032 Descending Chicago Center
Tue 10:32:51 AM 42.9236 -87.5800 291° West 422 486 26,600 -1,935 Descending Chicago Center
Tue 10:33:53 AM 42.9639 -87.7236 291° West 410 472 24,600 -1,935 Descending Chicago Center
Tue 10:34:55 AM 42.9947 -87.8706 286° West 407 468 22,600 -2,129 Descending Chicago Center
Tue 10:35:57 AM 42.9794 -88.0389 263° West 377 434 20,200 -1,258 Descending Chicago Center
Tue 10:36:59 AM 42.9964 -88.1758 280° West 387 445 20,000 -581 Descending Chicago Center
Tue 10:38:01 AM 43.0700 -88.2933 311° West 404 465 19,000 -1,694 Descending Chicago Center
Tue 10:39:03 AM 43.1153 -88.4211 296° West 370 426 16,500 -2,371 Descending Chicago Center
Tue 10:40:05 AM 43.1192 -88.5561 272° West 354 407 14,100 -1,403 Descending Chicago Center
Tue 10:41:07 AM 43.1225 -88.6850 272° West 344 396 13,600 -968 Descending Chicago Center
Tue 10:42:09 AM 43.1481 -88.8006 287° West 362 417 12,100 -1,452 Descending Chicago Center
Tue 10:43:11 AM 43.2056 -88.9000 308° West 340 391 10,600 -1,790 Descending Chicago Center
Tue 10:44:13 AM 43.2700 -89.0006 311° West 302 348 8,400 -2,032 Descending Chicago Center
Tue 10:45:15 AM 43.3047 -89.0842 300° West 279 321 6,400 -2,032 Descending Chicago Center
Tue 10:46:17 AM 43.3136 -89.1742 278° West 254 292 4,200 -1,645 Descending Chicago Center
Tue 10:47:19 AM 43.3208 -89.2606 277° West 239 275 3,000 -532 Descending Chicago Center
Tue 10:48:21 AM 43.3103 -89.3200 256° West 201 231 3,100  Climbing Chicago Center
Tue 10:49:23 AM 43.2783 -89.3367 201° Southwest 151 174 3,000 -194 Descending Chicago Center
Tue 10:50:25 AM 43.2367 -89.3397 183° South 132 152 2,700 -387 Descending Chicago Center
Tue 10:51:27 AM 43.2086 -89.3397 180° South 118 136 2,200 -537 Descending Chicago Center
Tue 10:52:28 AM 43.1814 -89.3403 181° South 107 123 1,600 -488 Descending Chicago Center
Tue 10:53:30 AM 43.1483 -89.3422 182° South 106 122 1,200 -387 Descending Chicago Center

Login

Don't have an account? Register now (free) for customized features, flight alerts, and more!